sensor_id;sensor_type;location;lat;lon;timestamp;temperature;humidity
19654;DHT22;9975;48.046;7.804;2022-11-18T01:57:25;9.20;99.90
19654;DHT22;9975;48.046;7.804;2022-11-18T01:59:56;9.20;99.90
19654;DHT22;9975;48.046;7.804;2022-11-18T02:02:23;9.20;99.90
19654;DHT22;9975;48.046;7.804;2022-11-18T02:04:51;9.10;99.90
19654;DHT22;9975;48.046;7.804;2022-11-18T02:07:18;9.10;99.90
19654;DHT22;9975;48.046;7.804;2022-11-18T02:09:44;9.10;99.90
19654;DHT22;9975;48.046;7.804;2022-11-18T02:12:10;9.10;99.90
19654;DHT22;9975;48.046;7.804;2022-11-18T02:14:40;9.10;99.90
19654;DHT22;9975;48.046;7.804;2022-11-18T02:17:23;9.10;99.90
19654;DHT22;9975;48.046;7.804;2022-11-18T02:20:09;9.00;99.90
19654;DHT22;9975;48.046;7.804;2022-11-18T02:33:25;8.90;99.90
19654;DHT22;9975;48.046;7.804;2022-11-18T02:36:12;8.80;99.90
19654;DHT22;9975;48.046;7.804;2022-11-18T02:38:54;8.80;99.90
19654;DHT22;9975;48.046;7.804;2022-11-18T02:41:27;8.80;99.90
19654;DHT22;9975;48.046;7.804;2022-11-18T02:43:58;8.80;99.90
19654;DHT22;9975;48.046;7.804;2022-11-18T02:46:29;8.90;99.90
19654;DHT22;9975;48.046;7.804;2022-11-18T02:48:58;8.90;99.90
19654;DHT22;9975;48.046;7.804;2022-11-18T02:51:27;8.90;99.90
19654;DHT22;9975;48.046;7.804;2022-11-18T02:53:56;8.90;99.90
19654;DHT22;9975;48.046;7.804;2022-11-18T02:56:24;8.90;99.90
19654;DHT22;9975;48.046;7.804;2022-11-18T02:58:51;8.90;99.90
19654;DHT22;9975;48.046;7.804;2022-11-18T03:01:24;8.90;99.90
19654;DHT22;9975;48.046;7.804;2022-11-18T03:03:52;8.90;99.90
19654;DHT22;9975;48.046;7.804;2022-11-18T03:14:50;9.00;99.90
19654;DHT22;9975;48.046;7.804;2022-11-18T03:23:00;9.00;99.90
19654;DHT22;9975;48.046;7.804;2022-11-18T03:30:36;8.90;99.90
19654;DHT22;9975;48.046;7.804;2022-11-18T03:33:09;8.90;99.90
19654;DHT22;9975;48.046;7.804;2022-11-18T03:39:00;8.90;99.90
19654;DHT22;9975;48.046;7.804;2022-11-18T03:41:30;8.90;99.90
19654;DHT22;9975;48.046;7.804;2022-11-18T03:44:01;8.90;99.90
19654;DHT22;9975;48.046;7.804;2022-11-18T03:46:44;8.90;99.90
19654;DHT22;9975;48.046;7.804;2022-11-18T03:49:18;8.90;99.90
19654;DHT22;9975;48.046;7.804;2022-11-18T03:51:50;8.90;99.90
19654;DHT22;9975;48.046;7.804;2022-11-18T03:54:22;8.80;99.90
19654;DHT22;9975;48.046;7.804;2022-11-18T03:56:57;8.90;99.90
19654;DHT22;9975;48.046;7.804;2022-11-18T03:59:49;8.80;99.90
19654;DHT22;9975;48.046;7.804;2022-11-18T04:02:22;8.80;99.90
19654;DHT22;9975;48.046;7.804;2022-11-18T04:04:50;8.80;99.90
19654;DHT22;9975;48.046;7.804;2022-11-18T04:10:03;8.80;99.90
19654;DHT22;9975;48.046;7.804;2022-11-18T04:12:32;8.80;99.90
19654;DHT22;9975;48.046;7.804;2022-11-18T04:14:59;8.90;99.90
19654;DHT22;9975;48.046;7.804;2022-11-18T04:17:27;8.70;99.90
19654;DHT22;9975;48.046;7.804;2022-11-18T04:19:53;8.70;99.90
19654;DHT22;9975;48.046;7.804;2022-11-18T04:22:20;8.70;99.90
19654;DHT22;9975;48.046;7.804;2022-11-18T04:24:46;8.80;99.90
19654;DHT22;9975;48.046;7.804;2022-11-18T04:27:12;8.70;99.90
19654;DHT22;9975;48.046;7.804;2022-11-18T04:29:37;8.70;99.90
19654;DHT22;9975;48.046;7.804;2022-11-18T04:32:04;8.70;99.90
19654;DHT22;9975;48.046;7.804;2022-11-18T04:34:30;8.70;99.90
19654;DHT22;9975;48.046;7.804;2022-11-18T04:36:56;8.70;99.90
19654;DHT22;9975;48.046;7.804;2022-11-18T04:39:22;8.70;99.90
19654;DHT22;9975;48.046;7.804;2022-11-18T04:41:48;8.70;99.90
19654;DHT22;9975;48.046;7.804;2022-11-18T04:44:20;8.60;99.90
19654;DHT22;9975;48.046;7.804;2022-11-18T04:46:45;8.70;99.90
19654;DHT22;9975;48.046;7.804;2022-11-18T04:49:13;8.70;99.90
19654;DHT22;9975;48.046;7.804;2022-11-18T04:51:40;8.70;99.90
19654;DHT22;9975;48.046;7.804;2022-11-18T04:54:06;8.70;99.90
19654;DHT22;9975;48.046;7.804;2022-11-18T04:56:32;8.70;99.90
19654;DHT22;9975;48.046;7.804;2022-11-18T04:58:59;8.70;99.90
19654;DHT22;9975;48.046;7.804;2022-11-18T05:01:26;8.70;99.90
19654;DHT22;9975;48.046;7.804;2022-11-18T05:03:52;8.70;99.90
19654;DHT22;9975;48.046;7.804;2022-11-18T05:06:18;8.60;99.90
19654;DHT22;9975;48.046;7.804;2022-11-18T05:08:43;8.60;99.90
19654;DHT22;9975;48.046;7.804;2022-11-18T05:11:09;8.60;99.90
19654;DHT22;9975;48.046;7.804;2022-11-18T05:13:53;8.50;99.90
19654;DHT22;9975;48.046;7.804;2022-11-18T05:16:19;8.50;99.90
19654;DHT22;9975;48.046;7.804;2022-11-18T05:18:44;8.50;99.90
19654;DHT22;9975;48.046;7.804;2022-11-18T05:21:10;8.50;99.90
19654;DHT22;9975;48.046;7.804;2022-11-18T05:23:36;8.50;99.90
19654;DHT22;9975;48.046;7.804;2022-11-18T05:26:06;8.50;99.90
19654;DHT22;9975;48.046;7.804;2022-11-18T05:28:33;8.50;99.90
19654;DHT22;9975;48.046;7.804;2022-11-18T05:30:58;8.40;99.90
19654;DHT22;9975;48.046;7.804;2022-11-18T05:33:24;8.40;99.90
19654;DHT22;9975;48.046;7.804;2022-11-18T05:35:50;8.30;99.90
19654;DHT22;9975;48.046;7.804;2022-11-18T05:38:16;8.40;99.90
19654;DHT22;9975;48.046;7.804;2022-11-18T05:40:53;8.40;99.90
19654;DHT22;9975;48.046;7.804;2022-11-18T05:43:19;8.40;99.90
19654;DHT22;9975;48.046;7.804;2022-11-18T05:45:45;8.30;99.90
19654;DHT22;9975;48.046;7.804;2022-11-18T05:48:11;8.20;99.90
19654;DHT22;9975;48.046;7.804;2022-11-18T05:50:37;8.20;99.90
19654;DHT22;9975;48.046;7.804;2022-11-18T05:53:03;8.30;99.90
19654;DHT22;9975;48.046;7.804;2022-11-18T05:55:53;8.30;99.90
19654;DHT22;9975;48.046;7.804;2022-11-18T05:58:21;8.20;99.90
19654;DHT22;9975;48.046;7.804;2022-11-18T06:00:48;8.10;99.90
19654;DHT22;9975;48.046;7.804;2022-11-18T06:03:20;8.00;99.90
19654;DHT22;9975;48.046;7.804;2022-11-18T06:05:47;8.10;99.90
19654;DHT22;9975;48.046;7.804;2022-11-18T06:08:14;8.00;99.90
19654;DHT22;9975;48.046;7.804;2022-11-18T06:10:42;8.00;99.90
19654;DHT22;9975;48.046;7.804;2022-11-18T06:13:15;8.00;99.90
19654;DHT22;9975;48.046;7.804;2022-11-18T06:15:43;7.90;99.90
19654;DHT22;9975;48.046;7.804;2022-11-18T06:18:22;7.90;99.90
19654;DHT22;9975;48.046;7.804;2022-11-18T06:20:50;8.00;99.90
19654;DHT22;9975;48.046;7.804;2022-11-18T06:23:17;7.90;99.90
19654;DHT22;9975;48.046;7.804;2022-11-18T06:25:43;7.90;99.90
19654;DHT22;9975;48.046;7.804;2022-11-18T06:28:10;7.90;99.90
19654;DHT22;9975;48.046;7.804;2022-11-18T06:30:37;7.90;99.90
19654;DHT22;9975;48.046;7.804;2022-11-18T06:33:03;7.90;99.90
19654;DHT22;9975;48.046;7.804;2022-11-18T06:35:28;7.90;99.90
19654;DHT22;9975;48.046;7.804;2022-11-18T06:38:06;7.90;99.90
19654;DHT22;9975;48.046;7.804;2022-11-18T06:40:32;7.90;99.90
19654;DHT22;9975;48.046;7.804;2022-11-18T06:42:57;7.80;99.90
19654;DHT22;9975;48.046;7.804;2022-11-18T06:45:41;7.80;99.90
19654;DHT22;9975;48.046;7.804;2022-11-18T06:48:27;7.90;99.90
19654;DHT22;9975;48.046;7.804;2022-11-18T06:50:52;7.90;99.90
19654;DHT22;9975;48.046;7.804;2022-11-18T06:53:18;7.90;99.90
19654;DHT22;9975;48.046;7.804;2022-11-18T06:55:43;8.00;99.90
19654;DHT22;9975;48.046;7.804;2022-11-18T06:58:09;8.00;99.90
19654;DHT22;9975;48.046;7.804;2022-11-18T07:00:35;8.00;99.90
19654;DHT22;9975;48.046;7.804;2022-11-18T07:03:01;8.00;99.90
19654;DHT22;9975;48.046;7.804;2022-11-18T07:05:26;8.00;99.90
19654;DHT22;9975;48.046;7.804;2022-11-18T07:07:52;8.00;99.90
19654;DHT22;9975;48.046;7.804;2022-11-18T07:10:18;8.10;99.90
19654;DHT22;9975;48.046;7.804;2022-11-18T07:12:44;8.10;99.90
19654;DHT22;9975;48.046;7.804;2022-11-18T07:15:09;8.10;99.90
19654;DHT22;9975;48.046;7.804;2022-11-18T07:20:01;8.10;99.90
19654;DHT22;9975;48.046;7.804;2022-11-18T07:22:27;8.10;99.90
19654;DHT22;9975;48.046;7.804;2022-11-18T07:24:53;8.10;99.90
19654;DHT22;9975;48.046;7.804;2022-11-18T07:27:18;8.10;99.90
19654;DHT22;9975;48.046;7.804;2022-11-18T07:29:44;8.10;99.90
19654;DHT22;9975;48.046;7.804;2022-11-18T07:32:10;8.20;99.90
19654;DHT22;9975;48.046;7.804;2022-11-18T07:34:35;8.20;99.90
19654;DHT22;9975;48.046;7.804;2022-11-18T07:37:01;8.20;99.90
19654;DHT22;9975;48.046;7.804;2022-11-18T07:39:26;8.30;99.90
19654;DHT22;9975;48.046;7.804;2022-11-18T07:41:52;8.30;99.90
19654;DHT22;9975;48.046;7.804;2022-11-18T07:44:17;8.30;99.90
19654;DHT22;9975;48.046;7.804;2022-11-18T07:46:43;8.40;99.90
19654;DHT22;9975;48.046;7.804;2022-11-18T07:49:10;8.40;99.90
19654;DHT22;9975;48.046;7.804;2022-11-18T07:51:38;8.50;99.90
19654;DHT22;9975;48.046;7.804;2022-11-18T07:54:07;8.40;99.90
19654;DHT22;9975;48.046;7.804;2022-11-18T07:56:33;8.50;99.90
19654;DHT22;9975;48.046;7.804;2022-11-18T07:58:58;8.60;99.90
19654;DHT22;9975;48.046;7.804;2022-11-18T08:01:25;8.50;99.90
19654;DHT22;9975;48.046;7.804;2022-11-18T08:03:55;8.60;99.90
19654;DHT22;9975;48.046;7.804;2022-11-18T08:06:21;8.60;99.90
19654;DHT22;9975;48.046;7.804;2022-11-18T08:08:47;8.70;99.90
19654;DHT22;9975;48.046;7.804;2022-11-18T08:11:15;8.70;99.90
19654;DHT22;9975;48.046;7.804;2022-11-18T08:13:41;8.70;99.90
19654;DHT22;9975;48.046;7.804;2022-11-18T08:16:15;8.70;99.90
19654;DHT22;9975;48.046;7.804;2022-11-18T08:18:43;8.70;99.90
19654;DHT22;9975;48.046;7.804;2022-11-18T08:21:10;8.70;99.90
19654;DHT22;9975;48.046;7.804;2022-11-18T08:23:36;8.70;99.90
19654;DHT22;9975;48.046;7.804;2022-11-18T08:26:08;8.80;99.90
19654;DHT22;9975;48.046;7.804;2022-11-18T08:28:34;8.70;99.90
19654;DHT22;9975;48.046;7.804;2022-11-18T08:31:00;8.70;99.90
19654;DHT22;9975;48.046;7.804;2022-11-18T08:33:32;8.70;99.90
19654;DHT22;9975;48.046;7.804;2022-11-18T08:36:14;8.80;99.90
19654;DHT22;9975;48.046;7.804;2022-11-18T08:38:39;8.80;99.90
19654;DHT22;9975;48.046;7.804;2022-11-18T08:41:05;8.70;99.90
19654;DHT22;9975;48.046;7.804;2022-11-18T08:43:34;8.80;99.90
19654;DHT22;9975;48.046;7.804;2022-11-18T08:45:59;8.80;99.90
19654;DHT22;9975;48.046;7.804;2022-11-18T08:48:25;8.80;99.90
19654;DHT22;9975;48.046;7.804;2022-11-18T08:50:51;8.90;99.90
19654;DHT22;9975;48.046;7.804;2022-11-18T08:53:17;8.90;99.90
19654;DHT22;9975;48.046;7.804;2022-11-18T08:55:43;8.90;99.90
19654;DHT22;9975;48.046;7.804;2022-11-18T08:58:08;8.90;99.90
19654;DHT22;9975;48.046;7.804;2022-11-18T09:00:34;8.90;99.90
19654;DHT22;9975;48.046;7.804;2022-11-18T09:02:59;8.90;99.90
19654;DHT22;9975;48.046;7.804;2022-11-18T09:05:25;9.00;99.90
19654;DHT22;9975;48.046;7.804;2022-11-18T09:07:51;9.00;99.90
19654;DHT22;9975;48.046;7.804;2022-11-18T09:10:16;9.10;99.90
19654;DHT22;9975;48.046;7.804;2022-11-18T09:12:42;9.10;99.90
19654;DHT22;9975;48.046;7.804;2022-11-18T09:15:08;9.20;99.90
19654;DHT22;9975;48.046;7.804;2022-11-18T09:17:34;9.20;99.90
19654;DHT22;9975;48.046;7.804;2022-11-18T09:19:59;9.20;99.90
19654;DHT22;9975;48.046;7.804;2022-11-18T09:22:25;9.20;99.90
19654;DHT22;9975;48.046;7.804;2022-11-18T09:24:51;9.20;99.90
19654;DHT22;9975;48.046;7.804;2022-11-18T09:27:16;9.10;99.90
19654;DHT22;9975;48.046;7.804;2022-11-18T09:29:42;9.20;99.90
19654;DHT22;9975;48.046;7.804;2022-11-18T09:32:07;9.10;99.90
19654;DHT22;9975;48.046;7.804;2022-11-18T09:34:33;9.20;99.90
19654;DHT22;9975;48.046;7.804;2022-11-18T09:37:02;9.20;99.90
19654;DHT22;9975;48.046;7.804;2022-11-18T09:39:30;9.20;99.90
19654;DHT22;9975;48.046;7.804;2022-11-18T09:45:04;9.30;99.90
19654;DHT22;9975;48.046;7.804;2022-11-18T09:47:33;9.20;99.90
19654;DHT22;9975;48.046;7.804;2022-11-18T09:50:13;9.20;99.90
19654;DHT22;9975;48.046;7.804;2022-11-18T09:53:03;9.20;99.90
19654;DHT22;9975;48.046;7.804;2022-11-18T09:55:31;9.30;99.90
19654;DHT22;9975;48.046;7.804;2022-11-18T09:57:59;9.30;99.90
19654;DHT22;9975;48.046;7.804;2022-11-18T10:00:28;9.30;99.90
19654;DHT22;9975;48.046;7.804;2022-11-18T10:03:04;9.30;99.90
19654;DHT22;9975;48.046;7.804;2022-11-18T10:05:32;9.40;99.90
19654;DHT22;9975;48.046;7.804;2022-11-18T10:24:50;9.50;99.90
19654;DHT22;9975;48.046;7.804;2022-11-18T10:27:17;9.60;99.90
19654;DHT22;9975;48.046;7.804;2022-11-18T10:29:44;9.70;99.90
19654;DHT22;9975;48.046;7.804;2022-11-18T10:32:15;9.70;99.90
19654;DHT22;9975;48.046;7.804;2022-11-18T10:34:53;9.70;99.90
19654;DHT22;9975;48.046;7.804;2022-11-18T10:37:31;9.70;99.90
19654;DHT22;9975;48.046;7.804;2022-11-18T10:39:59;9.80;99.90
19654;DHT22;9975;48.046;7.804;2022-11-18T10:42:28;9.80;99.90
19654;DHT22;9975;48.046;7.804;2022-11-18T10:45:15;9.80;99.90
19654;DHT22;9975;48.046;7.804;2022-11-18T10:47:41;9.90;99.90
19654;DHT22;9975;48.046;7.804;2022-11-18T10:50:32;9.90;99.90
19654;DHT22;9975;48.046;7.804;2022-11-18T10:52:59;10.00;99.90
19654;DHT22;9975;48.046;7.804;2022-11-18T10:55:28;10.10;99.90
19654;DHT22;9975;48.046;7.804;2022-11-18T10:58:09;10.20;99.90
19654;DHT22;9975;48.046;7.804;2022-11-18T11:00:45;10.20;99.90
19654;DHT22;9975;48.046;7.804;2022-11-18T11:05:45;10.10;99.90
19654;DHT22;9975;48.046;7.804;2022-11-18T11:08:21;10.10;99.90
19654;DHT22;9975;48.046;7.804;2022-11-18T11:10:55;10.10;99.90
19654;DHT22;9975;48.046;7.804;2022-11-18T11:13:26;10.10;99.90
19654;DHT22;9975;48.046;7.804;2022-11-18T11:15:56;10.00;99.90
19654;DHT22;9975;48.046;7.804;2022-11-18T11:18:27;10.00;99.90
19654;DHT22;9975;48.046;7.804;2022-11-18T11:21:17;10.10;99.90
19654;DHT22;9975;48.046;7.804;2022-11-18T11:23:43;10.10;99.90
19654;DHT22;9975;48.046;7.804;2022-11-18T11:26:37;10.10;99.90
19654;DHT22;9975;48.046;7.804;2022-11-18T11:29:27;10.00;99.90
19654;DHT22;9975;48.046;7.804;2022-11-18T11:32:32;10.10;99.90
19654;DHT22;9975;48.046;7.804;2022-11-18T11:35:11;10.30;99.90
19654;DHT22;9975;48.046;7.804;2022-11-18T11:37:54;10.40;99.90
19654;DHT22;9975;48.046;7.804;2022-11-18T11:48:31;10.60;99.90
19654;DHT22;9975;48.046;7.804;2022-11-18T11:51:03;10.50;99.90
19654;DHT22;9975;48.046;7.804;2022-11-18T11:59:59;10.60;99.90
19654;DHT22;9975;48.046;7.804;2022-11-18T12:07:55;11.90;99.90
19654;DHT22;9975;48.046;7.804;2022-11-18T12:10:43;11.90;99.90
19654;DHT22;9975;48.046;7.804;2022-11-18T12:13:34;11.90;99.90
19654;DHT22;9975;48.046;7.804;2022-11-18T12:16:22;11.40;99.90
19654;DHT22;9975;48.046;7.804;2022-11-18T12:24:24;10.90;99.90
19654;DHT22;9975;48.046;7.804;2022-11-18T12:26:52;11.00;99.90
19654;DHT22;9975;48.046;7.804;2022-11-18T12:31:56;11.00;99.90
19654;DHT22;9975;48.046;7.804;2022-11-18T12:34:38;11.20;99.90
19654;DHT22;9975;48.046;7.804;2022-11-18T12:42:45;11.00;99.90
19654;DHT22;9975;48.046;7.804;2022-11-18T12:50:56;11.00;99.90
19654;DHT22;9975;48.046;7.804;2022-11-18T12:53:43;10.90;99.90
19654;DHT22;9975;48.046;7.804;2022-11-18T12:58:52;10.90;99.90
19654;DHT22;9975;48.046;7.804;2022-11-18T13:01:26;10.90;99.90
19654;DHT22;9975;48.046;7.804;2022-11-18T13:06:34;10.80;99.90
19654;DHT22;9975;48.046;7.804;2022-11-18T13:09:04;10.70;99.90
19654;DHT22;9975;48.046;7.804;2022-11-18T13:11:40;10.70;99.90
19654;DHT22;9975;48.046;7.804;2022-11-18T13:14:37;10.70;99.90
19654;DHT22;9975;48.046;7.804;2022-11-18T13:17:36;10.70;99.90
19654;DHT22;9975;48.046;7.804;2022-11-18T13:26:01;10.60;99.90
19654;DHT22;9975;48.046;7.804;2022-11-18T13:28:39;10.60;99.90
19654;DHT22;9975;48.046;7.804;2022-11-18T13:33:51;10.50;99.90
19654;DHT22;9975;48.046;7.804;2022-11-18T13:36:19;10.50;99.90
19654;DHT22;9975;48.046;7.804;2022-11-18T13:41:20;10.50;99.90
19654;DHT22;9975;48.046;7.804;2022-11-18T13:43:49;10.50;99.90
19654;DHT22;9975;48.046;7.804;2022-11-18T13:46:18;10.50;99.90
19654;DHT22;9975;48.046;7.804;2022-11-18T13:48:55;10.50;99.90
19654;DHT22;9975;48.046;7.804;2022-11-18T13:51:22;10.60;99.90
19654;DHT22;9975;48.046;7.804;2022-11-18T13:53:48;10.50;99.90
19654;DHT22;9975;48.046;7.804;2022-11-18T13:56:25;10.50;99.90
19654;DHT22;9975;48.046;7.804;2022-11-18T13:58:57;10.50;99.90
19654;DHT22;9975;48.046;7.804;2022-11-18T14:01:29;10.50;99.90
19654;DHT22;9975;48.046;7.804;2022-11-18T14:06:38;10.40;99.90
19654;DHT22;9975;48.046;7.804;2022-11-18T14:11:56;10.30;99.90
19654;DHT22;9975;48.046;7.804;2022-11-18T14:14:39;10.30;99.90
19654;DHT22;9975;48.046;7.804;2022-11-18T14:17:18;10.30;99.90
19654;DHT22;9975;48.046;7.804;2022-11-18T14:19:45;10.30;99.90
19654;DHT22;9975;48.046;7.804;2022-11-18T14:22:18;10.30;99.90
19654;DHT22;9975;48.046;7.804;2022-11-18T14:24:53;10.30;99.90
19654;DHT22;9975;48.046;7.804;2022-11-18T14:33:29;10.20;99.90
19654;DHT22;9975;48.046;7.804;2022-11-18T14:36:29;10.30;99.90
19654;DHT22;9975;48.046;7.804;2022-11-18T14:38:55;10.30;99.90
19654;DHT22;9975;48.046;7.804;2022-11-18T14:41:21;10.30;99.90
19654;DHT22;9975;48.046;7.804;2022-11-18T14:44:06;10.30;99.90
19654;DHT22;9975;48.046;7.804;2022-11-18T14:46:33;10.30;99.90
19654;DHT22;9975;48.046;7.804;2022-11-18T14:49:04;10.30;99.90
19654;DHT22;9975;48.046;7.804;2022-11-18T14:51:30;10.30;99.90
19654;DHT22;9975;48.046;7.804;2022-11-18T14:53:56;10.40;99.90
19654;DHT22;9975;48.046;7.804;2022-11-18T14:56:25;10.30;99.90
19654;DHT22;9975;48.046;7.804;2022-11-18T14:58:51;10.30;99.90
19654;DHT22;9975;48.046;7.804;2022-11-18T15:01:18;10.30;99.90
19654;DHT22;9975;48.046;7.804;2022-11-18T15:03:43;10.30;99.90
19654;DHT22;9975;48.046;7.804;2022-11-18T15:06:17;10.20;99.90
19654;DHT22;9975;48.046;7.804;2022-11-18T15:08:45;10.20;99.90
19654;DHT22;9975;48.046;7.804;2022-11-18T15:11:11;10.10;99.90
19654;DHT22;9975;48.046;7.804;2022-11-18T15:13:38;10.10;99.90
19654;DHT22;9975;48.046;7.804;2022-11-18T15:16:19;10.10;99.90
19654;DHT22;9975;48.046;7.804;2022-11-18T15:18:49;10.00;99.90
19654;DHT22;9975;48.046;7.804;2022-11-18T15:21:18;10.00;99.90
19654;DHT22;9975;48.046;7.804;2022-11-18T15:23:44;10.00;99.90
19654;DHT22;9975;48.046;7.804;2022-11-18T15:26:24;10.00;99.90
19654;DHT22;9975;48.046;7.804;2022-11-18T15:28:52;10.00;99.90
19654;DHT22;9975;48.046;7.804;2022-11-18T15:31:19;9.90;99.90
19654;DHT22;9975;48.046;7.804;2022-11-18T15:33:45;9.90;99.90
19654;DHT22;9975;48.046;7.804;2022-11-18T15:36:13;9.90;99.90
19654;DHT22;9975;48.046;7.804;2022-11-18T15:38:40;9.90;99.90
19654;DHT22;9975;48.046;7.804;2022-11-18T15:41:06;9.90;99.90
19654;DHT22;9975;48.046;7.804;2022-11-18T15:43:32;9.90;99.90
19654;DHT22;9975;48.046;7.804;2022-11-18T15:45:58;9.90;99.90
19654;DHT22;9975;48.046;7.804;2022-11-18T15:48:24;9.80;99.90
19654;DHT22;9975;48.046;7.804;2022-11-18T15:50:49;9.90;99.90
19654;DHT22;9975;48.046;7.804;2022-11-18T15:53:16;9.70;99.90
19654;DHT22;9975;48.046;7.804;2022-11-18T15:55:41;9.80;99.90
19654;DHT22;9975;48.046;7.804;2022-11-18T15:58:07;9.70;99.90
19654;DHT22;9975;48.046;7.804;2022-11-18T16:00:33;9.70;99.90
19654;DHT22;9975;48.046;7.804;2022-11-18T16:02:58;9.70;99.90
19654;DHT22;9975;48.046;7.804;2022-11-18T16:05:24;9.70;99.90
19654;DHT22;9975;48.046;7.804;2022-11-18T16:07:49;9.70;99.90
19654;DHT22;9975;48.046;7.804;2022-11-18T16:10:15;9.70;99.90
19654;DHT22;9975;48.046;7.804;2022-11-18T16:13:00;9.70;99.90
19654;DHT22;9975;48.046;7.804;2022-11-18T16:15:25;9.50;99.90
19654;DHT22;9975;48.046;7.804;2022-11-18T16:18:13;9.60;99.90
19654;DHT22;9975;48.046;7.804;2022-11-18T16:20:39;9.60;99.90
19654;DHT22;9975;48.046;7.804;2022-11-18T16:23:05;9.60;99.90
19654;DHT22;9975;48.046;7.804;2022-11-18T16:25:31;9.60;99.90
19654;DHT22;9975;48.046;7.804;2022-11-18T16:27:56;9.60;99.90
19654;DHT22;9975;48.046;7.804;2022-11-18T16:30:22;9.50;99.90
19654;DHT22;9975;48.046;7.804;2022-11-18T16:33:06;9.60;99.90
19654;DHT22;9975;48.046;7.804;2022-11-18T16:35:32;9.50;99.90
19654;DHT22;9975;48.046;7.804;2022-11-18T16:37:57;9.40;99.90
19654;DHT22;9975;48.046;7.804;2022-11-18T16:40:23;9.50;99.90
19654;DHT22;9975;48.046;7.804;2022-11-18T16:42:51;9.50;99.90
19654;DHT22;9975;48.046;7.804;2022-11-18T16:45:17;9.50;99.90
19654;DHT22;9975;48.046;7.804;2022-11-18T16:47:43;9.50;99.90
19654;DHT22;9975;48.046;7.804;2022-11-18T16:50:10;9.50;99.90
19654;DHT22;9975;48.046;7.804;2022-11-18T16:52:35;9.40;99.90
19654;DHT22;9975;48.046;7.804;2022-11-18T16:55:01;9.40;99.90
19654;DHT22;9975;48.046;7.804;2022-11-18T16:57:27;9.40;99.90
19654;DHT22;9975;48.046;7.804;2022-11-18T16:59:53;9.30;99.90
19654;DHT22;9975;48.046;7.804;2022-11-18T17:04:45;9.30;99.90
19654;DHT22;9975;48.046;7.804;2022-11-18T17:07:11;9.30;99.90
19654;DHT22;9975;48.046;7.804;2022-11-18T17:09:37;9.30;99.90
19654;DHT22;9975;48.046;7.804;2022-11-18T17:12:03;9.30;99.90
19654;DHT22;9975;48.046;7.804;2022-11-18T17:14:29;9.40;99.90
19654;DHT22;9975;48.046;7.804;2022-11-18T17:17:05;9.30;99.90
19654;DHT22;9975;48.046;7.804;2022-11-18T17:19:31;9.30;99.90
19654;DHT22;9975;48.046;7.804;2022-11-18T17:21:57;9.30;99.90
19654;DHT22;9975;48.046;7.804;2022-11-18T17:24:23;9.30;99.90
19654;DHT22;9975;48.046;7.804;2022-11-18T17:26:50;9.30;99.90
19654;DHT22;9975;48.046;7.804;2022-11-18T17:29:16;9.20;99.90
19654;DHT22;9975;48.046;7.804;2022-11-18T17:31:42;9.30;99.90
19654;DHT22;9975;48.046;7.804;2022-11-18T17:34:12;9.20;99.90
19654;DHT22;9975;48.046;7.804;2022-11-18T17:36:39;9.20;99.90
19654;DHT22;9975;48.046;7.804;2022-11-18T17:39:09;9.20;99.90
19654;DHT22;9975;48.046;7.804;2022-11-18T17:41:35;9.20;99.90
19654;DHT22;9975;48.046;7.804;2022-11-18T17:44:19;9.10;99.90
19654;DHT22;9975;48.046;7.804;2022-11-18T17:46:45;9.10;99.90
19654;DHT22;9975;48.046;7.804;2022-11-18T17:49:13;9.10;99.90
19654;DHT22;9975;48.046;7.804;2022-11-18T17:51:40;9.00;99.90
19654;DHT22;9975;48.046;7.804;2022-11-18T17:54:07;9.00;99.90
19654;DHT22;9975;48.046;7.804;2022-11-18T17:56:32;9.00;99.90
19654;DHT22;9975;48.046;7.804;2022-11-18T17:58:59;8.90;99.90
19654;DHT22;9975;48.046;7.804;2022-11-18T18:01:25;11.70;99.90
19654;DHT22;9975;48.046;7.804;2022-11-18T18:06:17;8.80;99.90
19654;DHT22;9975;48.046;7.804;2022-11-18T18:08:44;8.80;99.90
19654;DHT22;9975;48.046;7.804;2022-11-18T18:11:16;8.80;99.90
19654;DHT22;9975;48.046;7.804;2022-11-18T18:13:42;8.80;99.90
19654;DHT22;9975;48.046;7.804;2022-11-18T18:16:27;8.80;99.90
19654;DHT22;9975;48.046;7.804;2022-11-18T18:18:53;8.80;99.90
19654;DHT22;9975;48.046;7.804;2022-11-18T18:21:19;8.70;99.90
19654;DHT22;9975;48.046;7.804;2022-11-18T18:23:45;8.70;99.90
19654;DHT22;9975;48.046;7.804;2022-11-18T18:26:11;8.70;99.90
19654;DHT22;9975;48.046;7.804;2022-11-18T18:28:37;8.60;99.90
19654;DHT22;9975;48.046;7.804;2022-11-18T18:31:07;8.60;99.90
19654;DHT22;9975;48.046;7.804;2022-11-18T18:33:34;8.60;99.90
19654;DHT22;9975;48.046;7.804;2022-11-18T18:36:17;8.60;99.90
19654;DHT22;9975;48.046;7.804;2022-11-18T18:38:43;8.60;99.90
19654;DHT22;9975;48.046;7.804;2022-11-18T18:41:15;8.60;99.90
19654;DHT22;9975;48.046;7.804;2022-11-18T18:43:41;8.60;99.90
19654;DHT22;9975;48.046;7.804;2022-11-18T18:46:26;8.50;99.90
19654;DHT22;9975;48.046;7.804;2022-11-18T18:49:12;8.50;99.90
19654;DHT22;9975;48.046;7.804;2022-11-18T18:51:43;8.40;99.90
19654;DHT22;9975;48.046;7.804;2022-11-18T18:54:11;8.40;99.90
19654;DHT22;9975;48.046;7.804;2022-11-18T18:56:38;8.40;99.90
19654;DHT22;9975;48.046;7.804;2022-11-18T18:59:04;8.30;99.90
19654;DHT22;9975;48.046;7.804;2022-11-18T19:01:30;8.30;99.90
19654;DHT22;9975;48.046;7.804;2022-11-18T19:04:01;8.30;99.90
19654;DHT22;9975;48.046;7.804;2022-11-18T19:06:35;8.30;99.90
19654;DHT22;9975;48.046;7.804;2022-11-18T19:09:03;8.30;99.90
19654;DHT22;9975;48.046;7.804;2022-11-18T19:11:29;8.40;99.90
19654;DHT22;9975;48.046;7.804;2022-11-18T19:14:15;8.40;99.90
19654;DHT22;9975;48.046;7.804;2022-11-18T19:16:42;8.40;99.90
19654;DHT22;9975;48.046;7.804;2022-11-18T19:19:15;8.40;99.90
19654;DHT22;9975;48.046;7.804;2022-11-18T19:21:41;8.40;99.90
19654;DHT22;9975;48.046;7.804;2022-11-18T19:24:08;8.40;99.90
19654;DHT22;9975;48.046;7.804;2022-11-18T19:26:34;9.90;99.90
19654;DHT22;9975;48.046;7.804;2022-11-18T19:28:59;8.40;99.90
19654;DHT22;9975;48.046;7.804;2022-11-18T19:31:34;8.40;99.90
19654;DHT22;9975;48.046;7.804;2022-11-18T19:34:00;8.50;99.90
19654;DHT22;9975;48.046;7.804;2022-11-18T19:36:25;8.60;99.90
19654;DHT22;9975;48.046;7.804;2022-11-18T19:38:51;8.60;99.90
19654;DHT22;9975;48.046;7.804;2022-11-18T19:41:17;8.60;99.90
19654;DHT22;9975;48.046;7.804;2022-11-18T19:43:43;8.60;99.90
19654;DHT22;9975;48.046;7.804;2022-11-18T19:46:09;8.70;99.90
19654;DHT22;9975;48.046;7.804;2022-11-18T19:48:34;8.60;99.90
19654;DHT22;9975;48.046;7.804;2022-11-18T19:51:10;8.70;99.90
19654;DHT22;9975;48.046;7.804;2022-11-18T19:53:38;8.70;99.90
19654;DHT22;9975;48.046;7.804;2022-11-18T19:56:12;8.60;99.90
19654;DHT22;9975;48.046;7.804;2022-11-18T19:58:39;8.70;99.90
19654;DHT22;9975;48.046;7.804;2022-11-18T20:01:14;8.70;99.90
19654;DHT22;9975;48.046;7.804;2022-11-18T20:03:42;8.70;99.90
19654;DHT22;9975;48.046;7.804;2022-11-18T20:06:08;8.70;99.90
19654;DHT22;9975;48.046;7.804;2022-11-18T20:08:36;8.70;99.90
19654;DHT22;9975;48.046;7.804;2022-11-18T20:11:03;8.70;99.90
19654;DHT22;9975;48.046;7.804;2022-11-18T20:13:30;8.80;99.90
19654;DHT22;9975;48.046;7.804;2022-11-18T20:16:01;8.80;99.90
19654;DHT22;9975;48.046;7.804;2022-11-18T20:18:27;8.80;99.90
19654;DHT22;9975;48.046;7.804;2022-11-18T20:25:45;8.70;99.90
19654;DHT22;9975;48.046;7.804;2022-11-18T20:28:10;8.70;99.90